sensor_id;sensor_type;location;lat;lon;timestamp;pressure;altitude;pressure_sealevel;temperature;humidity
80180;BME280;69505;52.134;5.438;2024-02-26T00:00:28;100224.47;;;4.04;100.00
80180;BME280;69505;52.134;5.438;2024-02-26T00:02:56;100230.66;;;4.03;100.00
80180;BME280;69505;52.134;5.438;2024-02-26T00:05:22;100232.44;;;4.02;100.00
80180;BME280;69505;52.134;5.438;2024-02-26T00:07:49;100233.56;;;3.98;100.00
80180;BME280;69505;52.134;5.438;2024-02-26T00:10:16;100232.88;;;3.95;100.00
80180;BME280;69505;52.134;5.438;2024-02-26T00:12:42;100240.13;;;3.91;100.00
80180;BME280;69505;52.134;5.438;2024-02-26T00:15:10;100235.91;;;3.89;100.00
80180;BME280;69505;52.134;5.438;2024-02-26T00:17:37;100239.38;;;3.89;100.00
80180;BME280;69505;52.134;5.438;2024-02-26T00:20:04;100234.13;;;3.89;100.00
80180;BME280;69505;52.134;5.438;2024-02-26T00:22:35;100246.50;;;3.87;100.00
80180;BME280;69505;52.134;5.438;2024-02-26T00:25:01;100245.75;;;3.85;100.00
80180;BME280;69505;52.134;5.438;2024-02-26T00:27:28;100250.41;;;3.80;100.00
80180;BME280;69505;52.134;5.438;2024-02-26T00:29:55;100246.19;;;3.77;100.00
80180;BME280;69505;52.134;5.438;2024-02-26T00:32:21;100246.38;;;3.74;100.00
80180;BME280;69505;52.134;5.438;2024-02-26T00:34:48;100247.41;;;3.72;100.00
80180;BME280;69505;52.134;5.438;2024-02-26T00:37:15;100248.41;;;3.69;100.00
80180;BME280;69505;52.134;5.438;2024-02-26T00:39:41;100244.19;;;3.66;100.00
80180;BME280;69505;52.134;5.438;2024-02-26T00:42:08;100243.25;;;3.68;100.00
80180;BME280;69505;52.134;5.438;2024-02-26T00:44:35;100241.56;;;3.66;100.00
80180;BME280;69505;52.134;5.438;2024-02-26T00:47:02;100242.50;;;3.65;100.00
80180;BME280;69505;52.134;5.438;2024-02-26T00:49:28;100247.00;;;3.63;100.00
80180;BME280;69505;52.134;5.438;2024-02-26T00:51:55;100247.00;;;3.63;100.00
80180;BME280;69505;52.134;5.438;2024-02-26T00:54:22;100252.34;;;3.62;100.00
80180;BME280;69505;52.134;5.438;2024-02-26T00:56:49;100239.47;;;3.57;100.00
80180;BME280;69505;52.134;5.438;2024-02-26T00:59:16;100255.03;;;3.60;100.00
80180;BME280;69505;52.134;5.438;2024-02-26T01:01:42;100242.94;;;3.58;100.00
80180;BME280;69505;52.134;5.438;2024-02-26T01:04:09;100251.66;;;3.58;100.00
80180;BME280;69505;52.134;5.438;2024-02-26T01:06:36;100249.03;;;3.58;100.00
80180;BME280;69505;52.134;5.438;2024-02-26T01:09:03;100252.13;;;3.65;100.00
80180;BME280;69505;52.134;5.438;2024-02-26T01:11:30;100243.25;;;3.68;100.00
80180;BME280;69505;52.134;5.438;2024-02-26T01:13:57;100245.88;;;3.68;100.00
80180;BME280;69505;52.134;5.438;2024-02-26T01:16:24;100250.28;;;3.67;100.00
80180;BME280;69505;52.134;5.438;2024-02-26T01:18:50;100242.50;;;3.65;100.00
80180;BME280;69505;52.134;5.438;2024-02-26T01:21:17;100238.19;;;3.64;100.00
80180;BME280;69505;52.134;5.438;2024-02-26T01:23:44;100243.44;;;3.64;100.00
80180;BME280;69505;52.134;5.438;2024-02-26T01:26:11;100238.00;;;3.68;100.00
80180;BME280;69505;52.134;5.438;2024-02-26T01:28:37;100238.78;;;3.70;100.00
80180;BME280;69505;52.134;5.438;2024-02-26T01:31:04;100235.19;;;3.71;100.00
80180;BME280;69505;52.134;5.438;2024-02-26T01:33:33;100238.56;;;3.73;100.00
80180;BME280;69505;52.134;5.438;2024-02-26T01:36:00;100237.75;;;3.72;100.00
80180;BME280;69505;52.134;5.438;2024-02-26T01:38:27;100232.50;;;3.72;100.00
80180;BME280;69505;52.134;5.438;2024-02-26T01:40:54;100227.31;;;3.71;100.00
80180;BME280;69505;52.134;5.438;2024-02-26T01:43:21;100235.00;;;3.74;100.00
80180;BME280;69505;52.134;5.438;2024-02-26T01:45:47;100227.13;;;3.74;100.00
80180;BME280;69505;52.134;5.438;2024-02-26T01:48:14;100232.28;;;3.75;100.00
80180;BME280;69505;52.134;5.438;2024-02-26T01:50:41;100227.72;;;3.79;100.00
80180;BME280;69505;52.134;5.438;2024-02-26T01:53:08;100233.72;;;3.81;100.00
80180;BME280;69505;52.134;5.438;2024-02-26T01:55:36;100239.91;;;3.80;100.00
80180;BME280;69505;52.134;5.438;2024-02-26T01:58:03;100236.06;;;3.85;100.00
80180;BME280;69505;52.134;5.438;2024-02-26T02:00:30;100249.88;;;3.89;100.00
80180;BME280;69505;52.134;5.438;2024-02-26T02:02:57;100244.63;;;3.89;100.00
80180;BME280;69505;52.134;5.438;2024-02-26T02:05:24;100247.16;;;3.91;100.00
80180;BME280;69505;52.134;5.438;2024-02-26T02:07:52;100247.25;;;3.89;100.00
80180;BME280;69505;52.134;5.438;2024-02-26T02:10:20;100254.03;;;3.93;100.00
80180;BME280;69505;52.134;5.438;2024-02-26T02:12:51;100253.00;;;3.96;100.00
80180;BME280;69505;52.134;5.438;2024-02-26T02:15:18;100258.16;;;3.97;100.00
80180;BME280;69505;52.134;5.438;2024-02-26T02:17:45;100261.72;;;3.96;100.00
80180;BME280;69505;52.134;5.438;2024-02-26T02:20:16;100260.66;;;3.99;100.00
80180;BME280;69505;52.134;5.438;2024-02-26T02:22:45;100263.22;;;4.00;100.00
80180;BME280;69505;52.134;5.438;2024-02-26T02:25:12;100258.72;;;4.02;100.00
80180;BME280;69505;52.134;5.438;2024-02-26T02:27:40;100263.06;;;4.03;100.00
80180;BME280;69505;52.134;5.438;2024-02-26T02:30:08;100266.53;;;4.04;100.00
80180;BME280;69505;52.134;5.438;2024-02-26T02:32:37;100274.22;;;4.07;100.00
80180;BME280;69505;52.134;5.438;2024-02-26T02:35:06;100269.81;;;4.07;100.00
80180;BME280;69505;52.134;5.438;2024-02-26T02:37:33;100273.28;;;4.08;100.00
80180;BME280;69505;52.134;5.438;2024-02-26T02:40:00;100280.13;;;4.11;100.00
80180;BME280;69505;52.134;5.438;2024-02-26T02:42:27;100284.56;;;4.10;100.00
80180;BME280;69505;52.134;5.438;2024-02-26T02:44:53;100281.84;;;4.12;100.00
80180;BME280;69505;52.134;5.438;2024-02-26T02:47:20;100293.19;;;4.12;100.00
80180;BME280;69505;52.134;5.438;2024-02-26T02:49:47;100288.78;;;4.13;100.00
80180;BME280;69505;52.134;5.438;2024-02-26T02:52:13;100288.78;;;4.13;100.00
80180;BME280;69505;52.134;5.438;2024-02-26T02:54:40;100292.16;;;4.15;100.00
80180;BME280;69505;52.134;5.438;2024-02-26T02:57:08;100290.47;;;4.14;100.00
80180;BME280;69505;52.134;5.438;2024-02-26T02:59:37;100299.09;;;4.16;100.00
80180;BME280;69505;52.134;5.438;2024-02-26T03:02:04;100294.69;;;4.16;100.00
80180;BME280;69505;52.134;5.438;2024-02-26T03:04:31;100300.78;;;4.17;100.00
80180;BME280;69505;52.134;5.438;2024-02-26T03:06:58;100306.88;;;4.17;100.00
80180;BME280;69505;52.134;5.438;2024-02-26T03:09:25;100304.25;;;4.17;100.00
80180;BME280;69505;52.134;5.438;2024-02-26T03:11:51;100316.56;;;4.17;100.00
80180;BME280;69505;52.134;5.438;2024-02-26T03:14:18;100314.84;;;4.16;100.00
80180;BME280;69505;52.134;5.438;2024-02-26T03:16:45;100320.97;;;4.16;100.00
80180;BME280;69505;52.134;5.438;2024-02-26T03:19:14;100323.63;;;4.16;100.00
80180;BME280;69505;52.134;5.438;2024-02-26T03:21:42;100327.16;;;4.15;100.00
80180;BME280;69505;52.134;5.438;2024-02-26T03:24:09;100331.56;;;4.15;100.00
80180;BME280;69505;52.134;5.438;2024-02-26T03:26:37;100333.25;;;4.16;100.00
80180;BME280;69505;52.134;5.438;2024-02-26T03:29:04;100338.63;;;4.14;100.00
80180;BME280;69505;52.134;5.438;2024-02-26T03:31:31;100343.13;;;4.12;100.00
80180;BME280;69505;52.134;5.438;2024-02-26T03:33:58;100340.50;;;4.12;100.00
80180;BME280;69505;52.134;5.438;2024-02-26T03:36:25;100344.03;;;4.11;100.00
80180;BME280;69505;52.134;5.438;2024-02-26T03:38:52;100343.19;;;4.11;100.00
80180;BME280;69505;52.134;5.438;2024-02-26T03:41:19;100341.59;;;4.08;100.00
80180;BME280;69505;52.134;5.438;2024-02-26T03:43:45;100343.28;;;4.09;100.00
80180;BME280;69505;52.134;5.438;2024-02-26T03:46:12;100345.06;;;4.09;100.00
80180;BME280;69505;52.134;5.438;2024-02-26T03:48:41;100348.66;;;4.07;100.00
80180;BME280;69505;52.134;5.438;2024-02-26T03:51:08;100355.78;;;4.05;100.00
80180;BME280;69505;52.134;5.438;2024-02-26T03:53:36;100346.19;;;4.04;100.00
80180;BME280;69505;52.134;5.438;2024-02-26T03:56:04;100353.97;;;4.06;100.00
80180;BME280;69505;52.134;5.438;2024-02-26T03:58:31;100355.78;;;4.05;100.00
80180;BME280;69505;52.134;5.438;2024-02-26T04:00:59;100352.19;;;4.06;100.00
80180;BME280;69505;52.134;5.438;2024-02-26T04:03:26;100346.19;;;4.04;100.00
80180;BME280;69505;52.134;5.438;2024-02-26T04:05:53;100350.53;;;4.05;100.00
80180;BME280;69505;52.134;5.438;2024-02-26T04:08:20;100352.19;;;4.06;100.00
80180;BME280;69505;52.134;5.438;2024-02-26T04:10:47;100346.94;;;4.06;100.00
80180;BME280;69505;52.134;5.438;2024-02-26T04:13:14;100353.03;;;4.07;100.00
80180;BME280;69505;52.134;5.438;2024-02-26T04:15:41;100361.78;;;4.07;100.00
80180;BME280;69505;52.134;5.438;2024-02-26T04:18:07;100357.44;;;4.06;100.00
80180;BME280;69505;52.134;5.438;2024-02-26T04:20:35;100360.91;;;4.07;100.00
80180;BME280;69505;52.134;5.438;2024-02-26T04:23:03;100366.09;;;4.09;100.00
80180;BME280;69505;52.134;5.438;2024-02-26T04:25:29;100366.84;;;4.11;100.00
80180;BME280;69505;52.134;5.438;2024-02-26T04:27:56;100362.53;;;4.10;100.00
80180;BME280;69505;52.134;5.438;2024-02-26T04:30:23;100380.00;;;4.11;100.00
80180;BME280;69505;52.134;5.438;2024-02-26T04:32:50;100376.59;;;4.09;100.00
80180;BME280;69505;52.134;5.438;2024-02-26T04:35:17;100383.56;;;4.10;100.00
80180;BME280;69505;52.134;5.438;2024-02-26T04:37:43;100379.16;;;4.10;100.00
80180;BME280;69505;52.134;5.438;2024-02-26T04:40:10;100379.16;;;4.10;100.00
80180;BME280;69505;52.134;5.438;2024-02-26T04:42:37;100385.25;;;4.11;100.00
80180;BME280;69505;52.134;5.438;2024-02-26T04:45:04;100382.53;;;4.12;100.00
80180;BME280;69505;52.134;5.438;2024-02-26T04:47:31;100379.81;;;4.14;100.00
80180;BME280;69505;52.134;5.438;2024-02-26T04:49:57;100385.81;;;4.16;100.00
80180;BME280;69505;52.134;5.438;2024-02-26T04:52:25;100380.47;;;4.17;100.00
80180;BME280;69505;52.134;5.438;2024-02-26T04:54:51;100384.91;;;4.17;100.00
80180;BME280;69505;52.134;5.438;2024-02-26T04:57:18;100387.44;;;4.18;100.00
80180;BME280;69505;52.134;5.438;2024-02-26T04:59:45;100392.59;;;4.20;100.00
80180;BME280;69505;52.134;5.438;2024-02-26T05:02:13;100396.09;;;4.20;100.00
80180;BME280;69505;52.134;5.438;2024-02-26T05:04:39;100393.53;;;4.19;100.00
80180;BME280;69505;52.134;5.438;2024-02-26T05:07:06;100395.13;;;4.21;100.00
80180;BME280;69505;52.134;5.438;2024-02-26T05:09:33;100396.72;;;4.24;100.00
80180;BME280;69505;52.134;5.438;2024-02-26T05:11:59;100408.13;;;4.24;100.00
80180;BME280;69505;52.134;5.438;2024-02-26T05:14:26;100410.81;;;4.23;100.00
80180;BME280;69505;52.134;5.438;2024-02-26T05:16:53;100394.22;;;4.22;100.00
80180;BME280;69505;52.134;5.438;2024-02-26T05:19:19;100402.94;;;4.23;100.00
80180;BME280;69505;52.134;5.438;2024-02-26T05:21:46;100400.22;;;4.24;100.00
80180;BME280;69505;52.134;5.438;2024-02-26T05:24:16;100402.94;;;4.23;100.00
80180;BME280;69505;52.134;5.438;2024-02-26T05:26:45;100404.72;;;4.22;100.00
80180;BME280;69505;52.134;5.438;2024-02-26T05:29:12;100406.50;;;4.22;100.00
80180;BME280;69505;52.134;5.438;2024-02-26T05:31:38;100401.34;;;4.20;100.00
80180;BME280;69505;52.134;5.438;2024-02-26T05:34:05;100409.13;;;4.22;100.00
80180;BME280;69505;52.134;5.438;2024-02-26T05:36:32;100413.53;;;4.21;100.00
80180;BME280;69505;52.134;5.438;2024-02-26T05:39:01;100413.63;;;4.20;100.00
80180;BME280;69505;52.134;5.438;2024-02-26T05:41:28;100418.78;;;4.21;100.00
80180;BME280;69505;52.134;5.438;2024-02-26T05:43:54;100417.00;;;4.22;100.00
80180;BME280;69505;52.134;5.438;2024-02-26T05:46:22;100421.34;;;4.23;100.00
80180;BME280;69505;52.134;5.438;2024-02-26T05:48:51;100425.75;;;4.22;100.00
80180;BME280;69505;52.134;5.438;2024-02-26T05:51:18;100431.94;;;4.21;100.00
80180;BME280;69505;52.134;5.438;2024-02-26T05:53:45;100434.56;;;4.21;100.00
80180;BME280;69505;52.134;5.438;2024-02-26T05:56:13;100433.88;;;4.18;100.00
80180;BME280;69505;52.134;5.438;2024-02-26T05:58:39;100436.44;;;4.19;100.00
80180;BME280;69505;52.134;5.438;2024-02-26T06:01:06;100430.13;;;4.22;100.00
80180;BME280;69505;52.134;5.438;2024-02-26T06:03:33;100445.91;;;4.22;100.00
80180;BME280;69505;52.134;5.438;2024-02-26T06:06:00;100437.25;;;4.20;100.00
80180;BME280;69505;52.134;5.438;2024-02-26T06:08:26;100442.53;;;4.20;100.00
80180;BME280;69505;52.134;5.438;2024-02-26T06:10:53;100446.78;;;4.22;100.00
80180;BME280;69505;52.134;5.438;2024-02-26T06:13:20;100450.25;;;4.23;100.00
80180;BME280;69505;52.134;5.438;2024-02-26T06:15:47;100446.66;;;4.24;100.00
80180;BME280;69505;52.134;5.438;2024-02-26T06:18:13;100451.00;;;4.25;100.00
80180;BME280;69505;52.134;5.438;2024-02-26T06:20:40;100464.91;;;4.27;100.00
80180;BME280;69505;52.134;5.438;2024-02-26T06:23:07;100464.91;;;4.27;100.00
80180;BME280;69505;52.134;5.438;2024-02-26T06:25:34;100469.34;;;4.26;100.00
80180;BME280;69505;52.134;5.438;2024-02-26T06:28:00;100466.69;;;4.26;100.00
80180;BME280;69505;52.134;5.438;2024-02-26T06:30:27;100467.47;;;4.29;100.00
80180;BME280;69505;52.134;5.438;2024-02-26T06:32:53;100469.97;;;4.30;100.00
80180;BME280;69505;52.134;5.438;2024-02-26T06:35:20;100466.59;;;4.28;100.00
80180;BME280;69505;52.134;5.438;2024-02-26T06:37:47;100471.97;;;4.26;100.00
80180;BME280;69505;52.134;5.438;2024-02-26T06:40:13;100477.09;;;4.28;100.00
80180;BME280;69505;52.134;5.438;2024-02-26T06:42:40;100478.81;;;4.29;100.00
80180;BME280;69505;52.134;5.438;2024-02-26T06:45:07;100478.81;;;4.29;100.00
80180;BME280;69505;52.134;5.438;2024-02-26T06:47:34;100486.69;;;4.29;100.00
80180;BME280;69505;52.134;5.438;2024-02-26T06:50:01;100497.13;;;4.31;100.00
80180;BME280;69505;52.134;5.438;2024-02-26T06:52:27;100500.69;;;4.30;100.00
80180;BME280;69505;52.134;5.438;2024-02-26T06:54:54;100496.25;;;4.30;100.00
80180;BME280;69505;52.134;5.438;2024-02-26T06:57:21;100504.06;;;4.32;100.00
80180;BME280;69505;52.134;5.438;2024-02-26T06:59:48;100511.88;;;4.33;100.00
80180;BME280;69505;52.134;5.438;2024-02-26T07:02:15;100509.25;;;4.33;100.00
80180;BME280;69505;52.134;5.438;2024-02-26T07:04:42;100512.72;;;4.34;100.00
80180;BME280;69505;52.134;5.438;2024-02-26T07:07:09;100507.47;;;4.34;100.00
80180;BME280;69505;52.134;5.438;2024-02-26T07:09:37;100512.66;;;4.35;100.00
80180;BME280;69505;52.134;5.438;2024-02-26T07:12:03;100516.13;;;4.36;100.00
80180;BME280;69505;52.134;5.438;2024-02-26T07:14:30;100528.22;;;4.38;100.00
80180;BME280;69505;52.134;5.438;2024-02-26T07:16:57;100533.50;;;4.38;100.00
80180;BME280;69505;52.134;5.438;2024-02-26T07:19:24;100528.22;;;4.38;100.00
80180;BME280;69505;52.134;5.438;2024-02-26T07:21:51;100536.81;;;4.42;100.00
80180;BME280;69505;52.134;5.438;2024-02-26T07:24:18;100542.91;;;4.42;100.00
80180;BME280;69505;52.134;5.438;2024-02-26T07:26:45;100542.06;;;4.42;100.00
80180;BME280;69505;52.134;5.438;2024-02-26T07:29:11;100544.63;;;4.43;100.00
80180;BME280;69505;52.134;5.438;2024-02-26T07:31:38;100547.25;;;4.43;100.00
80180;BME280;69505;52.134;5.438;2024-02-26T07:34:05;100543.59;;;4.46;100.00
80180;BME280;69505;52.134;5.438;2024-02-26T07:36:31;100549.69;;;4.46;100.00
80180;BME280;69505;52.134;5.438;2024-02-26T07:38:58;100560.13;;;4.48;100.00
80180;BME280;69505;52.134;5.438;2024-02-26T07:41:25;100542.56;;;4.48;100.00
80180;BME280;69505;52.134;5.438;2024-02-26T07:43:52;100553.91;;;4.49;100.00
80180;BME280;69505;52.134;5.438;2024-02-26T07:46:19;100551.22;;;4.51;100.00
80180;BME280;69505;52.134;5.438;2024-02-26T07:48:45;100561.72;;;4.51;100.00
80180;BME280;69505;52.134;5.438;2024-02-26T07:51:13;100557.22;;;4.53;100.00
80180;BME280;69505;52.134;5.438;2024-02-26T07:53:43;100564.28;;;4.52;100.00
80180;BME280;69505;52.134;5.438;2024-02-26T07:56:10;100570.38;;;4.53;100.00
80180;BME280;69505;52.134;5.438;2024-02-26T07:58:37;100576.47;;;4.53;100.00
80180;BME280;69505;52.134;5.438;2024-02-26T08:01:03;100585.13;;;4.55;100.00
80180;BME280;69505;52.134;5.438;2024-02-26T08:03:30;100580.75;;;4.56;100.00
80180;BME280;69505;52.134;5.438;2024-02-26T08:05:57;100583.25;;;4.57;100.00
80180;BME280;69505;52.134;5.438;2024-02-26T08:08:24;100590.13;;;4.60;100.00
80180;BME280;69505;52.134;5.438;2024-02-26T08:10:51;100589.22;;;4.61;100.00
80180;BME280;69505;52.134;5.438;2024-02-26T08:13:17;100591.66;;;4.64;100.00
80180;BME280;69505;52.134;5.438;2024-02-26T08:15:44;100594.28;;;4.64;100.00
80180;BME280;69505;52.134;5.438;2024-02-26T08:18:10;100609.91;;;4.67;100.00
80180;BME280;69505;52.134;5.438;2024-02-26T08:20:37;100609.91;;;4.67;100.00
80180;BME280;69505;52.134;5.438;2024-02-26T08:23:04;100602.78;;;4.69;100.00
80180;BME280;69505;52.134;5.438;2024-02-26T08:25:30;100595.72;;;4.70;100.00
80180;BME280;69505;52.134;5.438;2024-02-26T08:27:57;100608.03;;;4.69;100.00
80180;BME280;69505;52.134;5.438;2024-02-26T08:30:24;100614.97;;;4.70;100.00
80180;BME280;69505;52.134;5.438;2024-02-26T08:32:51;100616.69;;;4.71;100.00
80180;BME280;69505;52.134;5.438;2024-02-26T08:35:18;100626.25;;;4.72;100.00
80180;BME280;69505;52.134;5.438;2024-02-26T08:37:46;100615.75;;;4.72;100.00
80180;BME280;69505;52.134;5.438;2024-02-26T08:40:14;100630.59;;;4.73;100.00
80180;BME280;69505;52.134;5.438;2024-02-26T08:42:41;100633.25;;;4.73;100.00
80180;BME280;69505;52.134;5.438;2024-02-26T08:45:08;100631.44;;;4.74;100.00
80180;BME280;69505;52.134;5.438;2024-02-26T08:47:35;100630.59;;;4.73;100.00
80180;BME280;69505;52.134;5.438;2024-02-26T08:50:02;100639.25;;;4.75;100.00
80180;BME280;69505;52.134;5.438;2024-02-26T08:52:29;100639.06;;;4.78;100.00
80180;BME280;69505;52.134;5.438;2024-02-26T08:54:56;100644.25;;;4.80;100.00
80180;BME280;69505;52.134;5.438;2024-02-26T08:57:24;100646.91;;;4.80;100.00
80180;BME280;69505;52.134;5.438;2024-02-26T08:59:54;100651.31;;;4.79;100.00
80180;BME280;69505;52.134;5.438;2024-02-26T09:02:20;100653.94;;;4.79;100.00
80180;BME280;69505;52.134;5.438;2024-02-26T09:04:47;100653.94;;;4.79;100.00
80180;BME280;69505;52.134;5.438;2024-02-26T09:07:14;100661.06;;;4.77;100.00
80180;BME280;69505;52.134;5.438;2024-02-26T09:09:41;100669.81;;;4.78;100.00
80180;BME280;69505;52.134;5.438;2024-02-26T09:12:08;100666.34;;;4.77;100.00
80180;BME280;69505;52.134;5.438;2024-02-26T09:14:35;100666.41;;;4.76;100.00
80180;BME280;69505;52.134;5.438;2024-02-26T09:17:02;100670.75;;;4.77;100.00
80180;BME280;69505;52.134;5.438;2024-02-26T09:19:28;100669.81;;;4.78;100.00
80180;BME280;69505;52.134;5.438;2024-02-26T09:21:55;100677.69;;;4.78;100.00
80180;BME280;69505;52.134;5.438;2024-02-26T09:24:24;100669.81;;;4.78;100.00
80180;BME280;69505;52.134;5.438;2024-02-26T09:26:51;100681.16;;;4.78;100.00
80180;BME280;69505;52.134;5.438;2024-02-26T09:29:18;100688.16;;;4.79;100.00
80180;BME280;69505;52.134;5.438;2024-02-26T09:31:45;100684.75;;;4.77;100.00
80180;BME280;69505;52.134;5.438;2024-02-26T09:34:14;100686.44;;;4.78;100.00
80180;BME280;69505;52.134;5.438;2024-02-26T09:36:41;100690.00;;;4.77;100.00
80180;BME280;69505;52.134;5.438;2024-02-26T09:39:07;100696.03;;;4.79;100.00
80180;BME280;69505;52.134;5.438;2024-02-26T09:41:38;100703.00;;;4.80;100.00
80180;BME280;69505;52.134;5.438;2024-02-26T09:44:06;100712.59;;;4.81;100.00
80180;BME280;69505;52.134;5.438;2024-02-26T09:46:33;100701.31;;;4.79;100.00
80180;BME280;69505;52.134;5.438;2024-02-26T09:49:00;100715.13;;;4.83;100.00
80180;BME280;69505;52.134;5.438;2024-02-26T09:51:27;100709.19;;;4.79;100.00
80180;BME280;69505;52.134;5.438;2024-02-26T09:53:59;100709.00;;;4.82;100.00
80180;BME280;69505;52.134;5.438;2024-02-26T09:56:29;100710.63;;;4.85;100.00
80180;BME280;69505;52.134;5.438;2024-02-26T09:58:57;100720.16;;;4.87;100.00
80180;BME280;69505;52.134;5.438;2024-02-26T10:01:25;100728.88;;;4.88;100.00
80180;BME280;69505;52.134;5.438;2024-02-26T10:03:55;100728.03;;;4.87;100.00
80180;BME280;69505;52.134;5.438;2024-02-26T10:06:26;100728.88;;;4.88;100.00
80180;BME280;69505;52.134;5.438;2024-02-26T10:08:54;100729.91;;;4.85;100.00
80180;BME280;69505;52.134;5.438;2024-02-26T10:11:21;100733.47;;;4.84;100.00
80180;BME280;69505;52.134;5.438;2024-02-26T10:13:48;100740.25;;;4.88;100.00
80180;BME280;69505;52.134;5.438;2024-02-26T10:16:16;100748.00;;;4.92;100.00
80180;BME280;69505;52.134;5.438;2024-02-26T10:18:50;100750.53;;;4.93;100.00
80180;BME280;69505;52.134;5.438;2024-02-26T10:21:25;100750.53;;;4.93;100.00
80180;BME280;69505;52.134;5.438;2024-02-26T10:23:52;100753.25;;;4.92;100.00
80180;BME280;69505;52.134;5.438;2024-02-26T10:26:19;100753.00;;;4.96;100.00
80180;BME280;69505;52.134;5.438;2024-02-26T10:28:46;100765.06;;;5.00;100.00
80180;BME280;69505;52.134;5.438;2024-02-26T10:31:18;100763.25;;;5.01;100.00
80180;BME280;69505;52.134;5.438;2024-02-26T10:33:45;100767.69;;;5.00;100.00
80180;BME280;69505;52.134;5.438;2024-02-26T10:36:12;100775.50;;;5.02;100.00
80180;BME280;69505;52.134;5.438;2024-02-26T10:38:39;100778.88;;;5.04;100.00
80180;BME280;69505;52.134;5.438;2024-02-26T10:41:06;100779.81;;;5.03;100.00
80180;BME280;69505;52.134;5.438;2024-02-26T10:43:33;100785.78;;;5.06;100.00
80180;BME280;69505;52.134;5.438;2024-02-26T10:46:00;100795.88;;;5.14;100.00
80180;BME280;69505;52.134;5.438;2024-02-26T10:48:26;100792.47;;;5.12;100.00
80180;BME280;69505;52.134;5.438;2024-02-26T10:50:54;100791.69;;;5.10;100.00
80180;BME280;69505;52.134;5.438;2024-02-26T10:53:23;100800.38;;;5.12;100.00
80180;BME280;69505;52.134;5.438;2024-02-26T10:56:04;100803.63;;;5.17;100.00
80180;BME280;69505;52.134;5.438;2024-02-26T10:58:34;100804.31;;;5.21;100.00
80180;BME280;69505;52.134;5.438;2024-02-26T11:01:03;100818.88;;;5.26;100.00
80180;BME280;69505;52.134;5.438;2024-02-26T11:03:31;100811.59;;;5.32;100.00
80180;BME280;69505;52.134;5.438;2024-02-26T11:06:01;100819.50;;;5.32;100.00
80180;BME280;69505;52.134;5.438;2024-02-26T11:08:30;100824.00;;;5.29;100.00
80180;BME280;69505;52.134;5.438;2024-02-26T11:10:59;100825.53;;;5.34;100.00
80180;BME280;69505;52.134;5.438;2024-02-26T11:13:30;100826.38;;;5.34;100.00
80180;BME280;69505;52.134;5.438;2024-02-26T11:16:00;100829.69;;;5.38;100.00
80180;BME280;69505;52.134;5.438;2024-02-26T11:18:28;100838.50;;;5.37;100.00
80180;BME280;69505;52.134;5.438;2024-02-26T11:20:56;100834.28;;;5.34;100.00
80180;BME280;69505;52.134;5.438;2024-02-26T11:23:24;100840.56;;;5.32;100.00
80180;BME280;69505;52.134;5.438;2024-02-26T11:25:52;100839.63;;;5.33;100.00
80180;BME280;69505;52.134;5.438;2024-02-26T11:28:21;100842.50;;;5.28;100.00
80180;BME280;69505;52.134;5.438;2024-02-26T11:30:49;100844.03;;;5.32;100.00
80180;BME280;69505;52.134;5.438;2024-02-26T11:33:19;100846.94;;;5.27;100.00
80180;BME280;69505;52.134;5.438;2024-02-26T11:35:46;100850.81;;;5.20;100.00
80180;BME280;69505;52.134;5.438;2024-02-26T11:40:45;100853.13;;;5.26;100.00
80180;BME280;69505;52.134;5.438;2024-02-26T11:43:13;100853.38;;;5.22;100.00
80180;BME280;69505;52.134;5.438;2024-02-26T11:48:13;100866.41;;;5.25;100.00
80180;BME280;69505;52.134;5.438;2024-02-26T11:50:47;100866.41;;;5.25;100.00
80180;BME280;69505;52.134;5.438;2024-02-26T11:59:00;100874.28;;;5.41;100.00
80180;BME280;69505;52.134;5.438;2024-02-26T12:04:13;100885.25;;;5.49;100.00
80180;BME280;69505;52.134;5.438;2024-02-26T12:06:42;100882.28;;;5.55;100.00
80180;BME280;69505;52.134;5.438;2024-02-26T12:09:09;100883.97;;;5.56;100.00
80180;BME280;69505;52.134;5.438;2024-02-26T12:11:40;100889.34;;;5.55;100.00
80180;BME280;69505;52.134;5.438;2024-02-26T12:14:09;100886.72;;;5.55;100.00
80180;BME280;69505;52.134;5.438;2024-02-26T12:19:07;100901.50;;;5.57;100.00
80180;BME280;69505;52.134;5.438;2024-02-26T12:21:36;100900.22;;;5.48;100.00
80180;BME280;69505;52.134;5.438;2024-02-26T12:24:15;100903.88;;;5.46;100.00
80180;BME280;69505;52.134;5.438;2024-02-26T12:26:42;100905.75;;;5.44;100.00
80180;BME280;69505;52.134;5.438;2024-02-26T12:29:09;100908.44;;;5.42;100.00
80180;BME280;69505;52.134;5.438;2024-02-26T12:31:39;100908.38;;;5.44;100.00
80180;BME280;69505;52.134;5.438;2024-02-26T12:34:07;100920.53;;;5.46;100.00
80180;BME280;69505;52.134;5.438;2024-02-26T12:36:36;100920.53;;;5.46;100.00
80180;BME280;69505;52.134;5.438;2024-02-26T12:39:03;100910.81;;;5.47;100.00
80180;BME280;69505;52.134;5.438;2024-02-26T12:41:32;100918.41;;;5.53;100.00
80180;BME280;69505;52.134;5.438;2024-02-26T12:44:00;100925.13;;;5.59;100.00
80180;BME280;69505;52.134;5.438;2024-02-26T12:46:26;100927.97;;;5.54;100.00
80180;BME280;69505;52.134;5.438;2024-02-26T12:48:55;100923.41;;;5.58;100.00
80180;BME280;69505;52.134;5.438;2024-02-26T12:51:26;100933.94;;;5.58;100.00
80180;BME280;69505;52.134;5.438;2024-02-26T12:53:54;100938.63;;;5.53;100.00
80180;BME280;69505;52.134;5.438;2024-02-26T12:56:22;100940.06;;;5.58;100.00
80180;BME280;69505;52.134;5.438;2024-02-26T12:58:51;100942.78;;;5.57;100.00
80180;BME280;69505;52.134;5.438;2024-02-26T13:01:23;100946.41;;;5.54;100.00
80180;BME280;69505;52.134;5.438;2024-02-26T13:03:51;100948.91;;;5.57;100.00
80180;BME280;69505;52.134;5.438;2024-02-26T13:06:19;100950.25;;;5.64;100.00